Time;durP1;ratioP1;P1;durP2;ratioP2;P2;SDS_P1;SDS_P2;PMS_P1;PMS_P2;Temp;Humidity;BMP_temperature;BMP_pressure;BME280_temperature;BME280_humidity;BME280_pressure;Samples;Min_cycle;Max_cycle;Signal;HPM_P1;HPM_P2
2021/12/24 00:01:59;;;;;;;33.92;26.70;;;;;;;-3.51;96.58;95798.16;6176971;23;20015;-63
2021/12/24 00:04:25;;;;;;;38.03;27.25;;;;;;;-3.52;97.52;95796.50;6177479;23;20027;-63
2021/12/24 00:06:52;;;;;;;34.92;26.55;;;;;;;-3.57;96.68;95799.22;6177427;23;20016;-63
2021/12/24 00:09:23;;;;;;;38.08;28.13;;;;;;;-3.48;97.09;95798.88;6177687;23;20052;-63
2021/12/24 00:11:50;;;;;;;41.33;29.65;;;;;;;-3.51;97.74;95793.84;6177387;23;20086;-63
2021/12/24 00:14:15;;;;;;;39.75;28.70;;;;;;;-3.51;98.01;95793.84;6177824;22;20062;-63
2021/12/24 00:16:50;;;;;;;47.10;33.95;;;;;;;-3.48;97.43;95788.59;6177691;23;20001;-64
2021/12/24 00:35:33;;;;;;;38.80;26.67;;;;;;;-3.66;98.08;95769.47;6178266;23;20012;-63
2021/12/24 00:38:04;;;;;;;35.78;25.40;;;;;;;-3.65;97.14;95771.16;6179353;23;20345;-63
2021/12/24 00:40:47;;;;;;;29.33;22.90;;;;;;;-3.58;98.45;95768.38;6178659;23;20345;-63
2021/12/24 00:43:14;;;;;;;33.45;26.23;;;;;;;-3.42;95.89;95769.50;6178351;23;20349;-63
2021/12/24 00:45:42;;;;;;;36.90;27.20;;;;;;;-3.47;96.74;95767.09;6178317;23;20008;-63
2021/12/24 00:48:11;;;;;;;36.88;26.15;;;;;;;-3.48;97.16;95772.31;6178334;23;20051;-63
2021/12/24 00:56:09;;;;;;;32.80;24.67;;;;;;;-3.52;97.35;95745.81;6179015;23;20073;-63
2021/12/24 00:58:36;;;;;;;31.20;24.10;;;;;;;-3.53;96.88;95735.59;6179149;23;20413;-63
2021/12/24 01:01:03;;;;;;;30.00;22.23;;;;;;;-3.56;96.90;95738.25;6179142;23;20433;-63
2021/12/24 01:03:29;;;;;;;28.92;22.23;;;;;;;-3.55;96.62;95724.50;6179029;23;20001;-63
2021/12/24 01:05:54;;;;;;;26.98;20.85;;;;;;;-3.57;96.41;95721.13;6153048;23;20013;-63
2021/12/24 01:08:20;;;;;;;26.35;20.02;;;;;;;-3.61;95.99;95713.53;6179141;23;20005;-63
2021/12/24 01:10:56;;;;;;;21.35;16.73;;;;;;;-3.60;96.60;95712.63;6179069;22;20089;-63
2021/12/24 01:13:23;;;;;;;17.02;15.07;;;;;;;-3.55;97.40;95702.19;6179259;23;20459;-63
2021/12/24 01:16:07;;;;;;;17.33;13.45;;;;;;;-3.45;96.71;95692.41;6179048;23;20008;-63
2021/12/24 01:18:56;;;;;;;19.73;15.98;;;;;;;-3.50;96.79;95695.13;6178964;23;20039;-63
2021/12/24 01:23:58;;;;;;;17.38;14.35;;;;;;;-3.59;96.79;95687.75;6178837;23;20092;-63
2021/12/24 01:45:13;;;;;;;13.25;10.25;;;;;;;-3.50;97.68;95682.25;6179085;23;20497;-63
2021/12/24 01:47:38;;;;;;;11.38;10.27;;;;;;;-3.40;98.07;95676.78;6178317;23;20005;-63
2021/12/24 01:50:04;;;;;;;13.07;11.20;;;;;;;-3.36;98.00;95675.78;6179402;23;20008;-63
2021/12/24 01:52:29;;;;;;;12.60;11.25;;;;;;;-3.40;98.70;95669.88;6179156;22;20433;-63
2021/12/24 01:54:54;;;;;;;12.93;10.65;;;;;;;-3.41;97.51;95683.66;6178791;23;20009;-63
2021/12/24 01:57:20;;;;;;;14.25;11.38;;;;;;;-3.41;98.16;95680.25;6178913;23;20455;-63
2021/12/24 01:59:45;;;;;;;15.95;11.85;;;;;;;-3.03;97.19;95685.66;6178930;23;20005;-63
2021/12/24 02:02:11;;;;;;;13.52;11.65;;;;;;;-3.20;97.94;95669.16;6178851;23;20009;-63
2021/12/24 02:04:36;;;;;;;14.80;13.35;;;;;;;-3.22;98.17;95659.78;6178561;23;20058;-63
2021/12/24 02:07:02;;;;;;;15.00;12.45;;;;;;;-3.26;97.76;95659.06;6179315;23;20540;-63
2021/12/24 02:09:28;;;;;;;14.73;13.15;;;;;;;-3.31;98.56;95650.69;6179104;23;20008;-63
2021/12/24 02:11:53;;;;;;;13.93;11.45;;;;;;;-3.22;99.72;95649.50;6178781;23;20013;-63
2021/12/24 02:14:22;;;;;;;16.55;13.88;;;;;;;-3.12;99.83;95655.13;6178742;23;20459;-63
2021/12/24 02:30:19;;;;;;;17.50;15.35;;;;;;;-2.75;97.21;95654.50;6179582;23;20451;-64
2021/12/24 02:32:44;;;;;;;16.42;14.70;;;;;;;-2.81;97.04;95649.63;6178552;23;20013;-63
2021/12/24 02:35:10;;;;;;;14.55;12.40;;;;;;;-2.76;97.22;95667.47;6179098;23;20055;-64
2021/12/24 02:37:36;;;;;;;17.08;14.52;;;;;;;-2.82;97.10;95657.38;6178936;23;20415;-63
2021/12/24 02:40:04;;;;;;;16.88;14.10;;;;;;;-2.92;97.14;95651.75;6178545;23;20086;-63
2021/12/24 02:42:30;;;;;;;16.13;14.20;;;;;;;-2.98;98.07;95663.16;6178608;23;20024;-64
2021/12/24 02:44:55;;;;;;;16.77;13.52;;;;;;;-3.04;98.08;95663.38;6179114;23;20086;-63
2021/12/24 02:55:05;;;;;;;16.20;14.02;;;;;;;-3.06;97.66;95654.88;6178609;23;20092;-64
2021/12/24 02:57:32;;;;;;;16.83;12.88;;;;;;;-3.08;97.71;95652.38;6178618;23;20009;-64
2021/12/24 03:00:06;;;;;;;14.18;11.98;;;;;;;-3.10;98.24;95643.03;6179618;23;20063;-64
2021/12/24 03:02:32;;;;;;;16.50;12.38;;;;;;;-3.02;97.95;95640.97;6179485;23;20447;-63
2021/12/24 03:04:58;;;;;;;16.73;12.75;;;;;;;-3.00;98.21;95639.19;6260538;22;20012;-64
2021/12/24 03:07:23;;;;;;;16.90;13.10;;;;;;;-3.03;97.63;95649.59;6306962;22;20007;-64
2021/12/24 03:09:49;;;;;;;15.85;12.48;;;;;;;-2.87;97.65;95644.72;6306989;22;20003;-64
2021/12/24 03:12:14;;;;;;;17.48;13.98;;;;;;;-2.91;98.81;95643.97;6306977;22;20389;-64
2021/12/24 03:14:40;;;;;;;17.00;13.90;;;;;;;-2.95;98.56;95637.28;6306800;22;20000;-65
2021/12/24 03:17:10;;;;;;;18.73;13.15;;;;;;;-3.03;98.89;95629.00;6307052;22;20031;-65
2021/12/24 03:19:36;;;;;;;20.85;13.30;;;;;;;-3.03;99.48;95621.28;6307030;22;19999;-64
2021/12/24 03:24:51;;;;;;;19.52;14.23;;;;;;;-2.93;98.98;95608.84;6290935;22;19999;-64
2021/12/24 03:27:17;;;;;;;22.42;16.42;;;;;;;-2.98;99.23;95610.78;6306699;22;20130;-64
2021/12/24 03:29:42;;;;;;;25.98;16.83;;;;;;;-3.03;99.23;95598.09;6305209;22;20342;-65
2021/12/24 03:32:08;;;;;;;21.27;16.02;;;;;;;-3.06;99.47;95596.50;6306600;22;20013;-65
2021/12/24 03:34:34;;;;;;;21.00;16.15;;;;;;;-3.01;98.80;95588.56;6306673;22;20009;-64
2021/12/24 03:37:01;;;;;;;20.35;16.83;;;;;;;-2.86;97.79;95584.53;6306855;22;20030;-64
2021/12/24 03:39:27;;;;;;;20.35;15.45;;;;;;;-2.69;97.93;95570.09;6306552;22;20045;-64
2021/12/24 03:41:53;;;;;;;20.27;15.73;;;;;;;-2.86;99.61;95558.78;6306694;22;20000;-65
2021/12/24 03:44:19;;;;;;;19.70;14.10;;;;;;;-2.82;98.87;95559.47;6306638;22;20003;-65
2021/12/24 03:49:30;;;;;;;16.35;13.00;;;;;;;-2.75;99.38;95546.28;6306825;22;20004;-64
2021/12/24 03:52:03;;;;;;;15.68;13.23;;;;;;;-2.53;98.20;95547.13;6306259;22;20003;-64
2021/12/24 03:57:15;;;;;;;15.98;11.43;;;;;;;-2.66;98.05;95534.72;6306487;22;20064;-64
2021/12/24 03:59:41;;;;;;;17.08;11.68;;;;;;;-2.70;98.16;95519.47;6306334;22;20045;-64
2021/12/24 04:02:06;;;;;;;14.02;10.95;;;;;;;-2.70;98.84;95515.16;6306443;22;20003;-64
2021/12/24 04:04:31;;;;;;;11.63;8.57;;;;;;;-2.31;96.83;95510.91;6237987;22;20068;-64
2021/12/24 04:06:57;;;;;;;8.95;7.75;;;;;;;-2.31;96.41;95504.03;6179430;23;20044;-64
2021/12/24 04:09:25;;;;;;;9.27;8.25;;;;;;;-2.25;96.10;95502.06;6179456;23;20013;-64
2021/12/24 04:11:50;;;;;;;16.00;10.88;;;;;;;-2.26;96.36;95501.22;6179695;23;20423;-64
2021/12/24 04:14:16;;;;;;;15.32;11.38;;;;;;;-2.27;96.05;95493.56;6179514;23;20008;-64
2021/12/24 04:16:41;;;;;;;10.93;9.52;;;;;;;-2.36;96.03;95505.94;6179327;23;20001;-64
2021/12/24 04:19:26;;;;;;;14.02;9.77;;;;;;;-2.43;96.90;95498.53;6179679;23;20006;-64
2021/12/24 04:24:56;;;;;;;14.75;10.50;;;;;;;-2.42;98.17;95498.47;6179390;23;20087;-64
2021/12/24 04:27:24;;;;;;;10.88;9.70;;;;;;;-2.34;97.24;95488.66;6179334;23;20005;-64
2021/12/24 04:29:52;;;;;;;16.33;11.13;;;;;;;-2.42;98.53;95503.63;6179447;23;20047;-64
2021/12/24 04:32:23;;;;;;;14.68;11.23;;;;;;;-2.45;97.99;95496.03;6179293;23;20009;-64
2021/12/24 04:34:51;;;;;;;13.68;10.43;;;;;;;-2.46;98.63;95504.69;6179339;23;20012;-64
2021/12/24 05:01:52;;;;;;;7.68;5.80;;;;;;;-2.19;96.98;95512.09;6179087;23;20095;-64
2021/12/24 05:04:25;;;;;;;7.07;6.38;;;;;;;-2.13;97.05;95514.41;6178919;23;20048;-64
2021/12/24 05:06:57;;;;;;;10.13;9.27;;;;;;;-2.11;96.52;95504.03;6152925;22;20016;-64
2021/12/24 05:09:24;;;;;;;9.50;8.35;;;;;;;-2.19;97.04;95496.63;6179271;23;20001;-64
2021/12/24 05:11:50;;;;;;;9.30;7.85;;;;;;;-2.21;97.04;95503.59;6179187;23;20068;-64
2021/12/24 05:14:16;;;;;;;12.75;9.82;;;;;;;-2.05;96.66;95498.56;6179254;23;20036;-64
2021/12/24 05:16:47;;;;;;;11.00;9.82;;;;;;;-1.92;95.76;95509.16;6179272;23;20007;-64
2021/12/24 05:21:52;;;;;;;7.93;7.13;;;;;;;-1.76;95.36;95517.91;6178727;23;20051;-65
2021/12/24 05:24:24;;;;;;;9.90;7.28;;;;;;;-1.79;95.45;95509.44;6179120;23;20053;-64
2021/12/24 05:26:57;;;;;;;9.02;7.65;;;;;;;-1.86;95.74;95508.91;6179116;23;20432;-64
2021/12/24 05:29:22;;;;;;;8.30;7.47;;;;;;;-1.88;95.72;95510.69;6179227;23;20074;-64
2021/12/24 05:31:49;;;;;;;8.52;7.70;;;;;;;-1.93;96.13;95504.91;6179114;23;20450;-65
2021/12/24 05:34:17;;;;;;;9.00;8.10;;;;;;;-1.95;96.67;95496.41;6179054;23;20009;-64
2021/12/24 05:36:42;;;;;;;9.05;8.13;;;;;;;-1.96;96.42;95484.41;6179170;23;19997;-64
2021/12/24 05:39:10;;;;;;;9.48;7.95;;;;;;;-1.93;96.35;95477.38;6179488;23;20013;-64
2021/12/24 05:41:36;;;;;;;9.20;7.20;;;;;;;-1.87;96.13;95469.34;6179022;23;20005;-64
2021/12/24 05:44:03;;;;;;;9.20;8.13;;;;;;;-1.80;96.13;95469.06;6179006;23;20504;-64
2021/12/24 05:46:29;;;;;;;10.32;9.13;;;;;;;-1.81;96.15;95468.22;6178915;23;20033;-64
2021/12/24 05:48:54;;;;;;;8.63;7.78;;;;;;;-1.82;96.01;95457.97;6179133;23;19997;-64
2021/12/24 05:51:20;;;;;;;9.32;8.43;;;;;;;-1.82;96.55;95452.81;6179282;23;20005;-64
2021/12/24 05:53:46;;;;;;;9.13;8.15;;;;;;;-1.81;96.28;95449.31;6179268;23;20005;-64
2021/12/24 05:56:12;;;;;;;9.10;6.80;;;;;;;-1.80;96.42;95449.25;6179143;23;20009;-64
2021/12/24 05:58:37;;;;;;;18.20;12.02;;;;;;;-1.74;96.71;95455.88;6179212;23;20009;-65
2021/12/24 06:01:03;;;;;;;12.30;9.50;;;;;;;-1.68;96.43;95454.72;6179317;23;20050;-64
2021/12/24 06:03:29;;;;;;;9.50;8.30;;;;;;;-1.70;96.66;95459.13;6179114;23;20028;-64
2021/12/24 06:05:54;;;;;;;9.43;7.35;;;;;;;-1.64;96.75;95458.88;6179097;23;20061;-65
2021/12/24 06:08:20;;;;;;;11.18;9.02;;;;;;;-1.63;96.41;95460.53;6179820;23;20009;-64
2021/12/24 06:10:45;;;;;;;11.10;8.75;;;;;;;-1.58;96.55;95471.47;6179106;23;20013;-64
2021/12/24 06:13:11;;;;;;;16.02;12.50;;;;;;;-1.54;96.63;95461.84;6179248;23;20008;-64
2021/12/24 06:15:45;;;;;;;16.60;12.52;;;;;;;-1.54;96.38;95457.50;6179155;23;20005;-64
2021/12/24 06:18:26;;;;;;;12.75;11.07;;;;;;;-1.48;96.71;95467.53;6179203;23;20005;-64
2021/12/24 06:20:54;;;;;;;18.05;12.63;;;;;;;-1.51;96.43;95467.69;6178563;23;20035;-64
2021/12/24 06:23:22;;;;;;;13.63;11.65;;;;;;;-1.56;96.92;95468.81;6178792;23;20078;-64
2021/12/24 06:25:53;;;;;;;13.50;11.45;;;;;;;-1.51;96.56;95477.19;6179073;23;20005;-64
2021/12/24 06:28:19;;;;;;;12.68;11.35;;;;;;;-1.45;96.25;95475.13;6178728;23;20012;-64
2021/12/24 06:30:45;;;;;;;13.88;11.48;;;;;;;-1.47;96.63;95483.88;6177847;23;20079;-64
2021/12/24 06:33:10;;;;;;;15.10;11.73;;;;;;;-1.34;96.78;95474.59;6178600;22;20400;-64
2021/12/24 06:35:37;;;;;;;16.23;12.27;;;;;;;-1.24;97.04;95487.09;6179010;23;20001;-65
2021/12/24 06:38:03;;;;;;;16.60;12.35;;;;;;;-1.40;97.32;95485.25;6179179;23;20046;-64
2021/12/24 06:40:28;;;;;;;15.32;12.13;;;;;;;-1.48;97.83;95477.03;6178790;23;20394;-64
2021/12/24 06:42:54;;;;;;;14.00;12.15;;;;;;;-1.49;98.44;95476.19;6179141;23;20024;-65
2021/12/24 06:45:21;;;;;;;13.10;11.73;;;;;;;-1.57;98.95;95478.31;6178985;23;20482;-65
2021/12/24 06:47:47;;;;;;;16.35;12.93;;;;;;;-1.62;98.43;95473.34;6178855;23;20460;-65
2021/12/24 06:50:13;;;;;;;15.05;12.02;;;;;;;-1.64;98.68;95482.91;6178810;23;20035;-65
2021/12/24 06:52:38;;;;;;;13.98;12.52;;;;;;;-1.60;98.84;95488.78;6178794;23;20072;-64
2021/12/24 06:55:04;;;;;;;13.23;11.77;;;;;;;-1.62;98.45;95506.09;6178918;23;20029;-64
2021/12/24 06:57:29;;;;;;;13.30;11.80;;;;;;;-1.59;98.34;95485.28;6178785;23;19997;-64
2021/12/24 06:59:55;;;;;;;14.35;12.32;;;;;;;-1.50;97.75;95505.50;6178885;23;20456;-65
2021/12/24 07:02:20;;;;;;;16.70;15.00;;;;;;;-1.48;97.91;95487.38;6178808;23;20037;-64
2021/12/24 07:04:46;;;;;;;18.15;15.90;;;;;;;-1.53;97.90;95491.91;6178457;23;20017;-64
2021/12/24 07:07:11;;;;;;;15.05;13.10;;;;;;;-1.59;98.29;95465.47;6178466;23;20005;-64
2021/12/24 07:09:42;;;;;;;16.90;15.10;;;;;;;-1.57;97.82;95475.72;6176651;23;20731;-65
2021/12/24 07:12:13;;;;;;;15.10;13.65;;;;;;;-1.39;96.87;95480.94;6178143;23;20501;-59
2021/12/24 07:14:40;;;;;;;17.75;15.15;;;;;;;-1.42;97.13;95486.25;6178649;23;20005;-62
2021/12/24 07:17:07;;;;;;;18.00;16.10;;;;;;;-1.50;97.53;95478.84;6178079;23;20440;-60
2021/12/24 07:19:32;;;;;;;14.52;13.02;;;;;;;-1.48;97.27;95483.03;6177271;23;20029;-61
2021/12/24 07:21:57;;;;;;;23.52;14.75;;;;;;;-1.47;97.65;95464.03;6177389;23;20001;-60
2021/12/24 07:24:23;;;;;;;21.55;17.95;;;;;;;-1.52;97.36;95471.19;6176492;23;20008;-60
2021/12/24 07:26:48;;;;;;;18.10;16.15;;;;;;;-1.52;97.89;95462.59;6177487;23;20000;-60
2021/12/24 07:29:14;;;;;;;20.52;15.38;;;;;;;-1.51;98.15;95462.50;6178554;23;20012;-61
2021/12/24 07:31:39;;;;;;;17.92;15.57;;;;;;;-1.52;97.74;95450.50;6177678;23;20009;-59
2021/12/24 07:34:05;;;;;;;20.55;18.35;;;;;;;-1.56;98.38;95454.16;6177352;23;20379;-59
2021/12/24 07:36:30;;;;;;;20.05;18.02;;;;;;;-1.55;98.28;95453.25;6177520;23;20005;-59
2021/12/24 07:38:55;;;;;;;20.38;17.63;;;;;;;-1.51;98.04;95452.19;6177997;23;20005;-60
2021/12/24 07:41:21;;;;;;;20.15;18.05;;;;;;;-1.45;97.93;95459.63;6177841;23;20005;-59
2021/12/24 07:43:47;;;;;;;20.23;17.83;;;;;;;-1.39;98.15;95470.59;6178404;23;20001;-60
2021/12/24 07:46:12;;;;;;;20.05;18.05;;;;;;;-1.35;98.04;95464.38;6177895;23;20016;-59
2021/12/24 07:48:45;;;;;;;37.17;19.02;;;;;;;-1.29;97.68;95469.22;6179339;23;20400;-54
2021/12/24 07:54:00;;;;;;;18.27;16.35;;;;;;;-1.08;97.56;95475.09;6179625;23;20013;-58
2021/12/24 07:56:26;;;;;;;22.70;18.52;;;;;;;-0.91;96.77;95471.66;6179656;23;20070;-58
2021/12/24 07:58:52;;;;;;;27.30;19.23;;;;;;;-0.78;96.41;95476.19;6178011;23;20333;-58
2021/12/24 08:01:17;;;;;;;45.45;33.03;;;;;;;-0.66;95.80;95470.41;6179892;23;20012;-58
2021/12/24 08:03:43;;;;;;;46.50;32.35;;;;;;;-0.60;95.64;95469.28;6178868;23;20508;-58
2021/12/24 08:06:08;;;;;;;35.80;26.63;;;;;;;-0.45;95.71;95467.63;6178507;23;20016;-58
2021/12/24 08:08:33;;;;;;;33.42;26.27;;;;;;;-0.33;94.88;95461.84;6178683;23;20007;-58
2021/12/24 08:10:59;;;;;;;48.47;31.67;;;;;;;-0.25;94.17;95456.22;6178736;23;20058;-59
2021/12/24 08:13:24;;;;;;;46.15;31.58;;;;;;;-0.14;94.03;95445.28;6178547;23;20040;-59
2021/12/24 08:15:53;;;;;;;47.60;28.90;;;;;;;-0.08;93.91;95439.81;6179521;23;20009;-59
2021/12/24 08:18:19;;;;;;;29.83;21.35;;;;;;;-0.01;93.65;95441.13;6178636;23;20005;-59
2021/12/24 08:20:44;;;;;;;29.98;20.75;;;;;;;0.08;94.16;95454.50;6178596;23;20005;-59
2021/12/24 08:23:09;;;;;;;31.90;23.55;;;;;;;0.08;93.78;95450.16;6177906;23;20001;-60
2021/12/24 08:25:35;;;;;;;27.70;20.48;;;;;;;0.13;94.24;95448.16;6179193;23;20056;-59
2021/12/24 08:28:00;;;;;;;23.40;17.80;;;;;;;0.37;93.63;95460.66;6173370;23;20008;-59
2021/12/24 08:30:26;;;;;;;22.98;18.02;;;;;;;0.62;91.70;95463.66;6178081;23;20041;-59
2021/12/24 08:32:52;;;;;;;27.55;21.33;;;;;;;0.52;91.39;95466.75;6177566;23;20015;-59
2021/12/24 08:35:21;;;;;;;26.75;20.58;;;;;;;0.60;92.52;95461.13;6178985;23;20005;-59
2021/12/24 08:37:47;;;;;;;25.13;18.75;;;;;;;0.55;91.69;95465.75;6178782;23;20011;-59
2021/12/24 08:40:13;;;;;;;26.27;19.83;;;;;;;0.52;91.61;95466.75;6152512;23;20009;-59
2021/12/24 08:42:38;;;;;;;21.15;18.90;;;;;;;0.61;92.88;95473.16;6178733;23;20001;-59
2021/12/24 08:45:05;;;;;;;24.40;21.50;;;;;;;0.65;91.11;95471.25;6178220;23;20032;-59
2021/12/24 08:47:30;;;;;;;20.58;17.85;;;;;;;0.68;91.70;95473.66;6177631;23;20076;-59
2021/12/24 08:49:56;;;;;;;23.90;17.90;;;;;;;0.62;91.82;95474.84;6176241;23;20712;-57
2021/12/24 08:52:21;;;;;;;21.08;18.85;;;;;;;0.64;91.81;95477.34;6177841;23;20020;-56
2021/12/24 08:54:46;;;;;;;22.60;20.20;;;;;;;0.63;91.77;95473.91;6177879;23;20028;-57
2021/12/24 08:57:12;;;;;;;24.10;21.60;;;;;;;0.71;91.04;95489.03;6176024;23;20341;-59
2021/12/24 08:59:37;;;;;;;25.65;21.23;;;;;;;0.67;91.66;95456.44;6175676;23;20005;-58
2021/12/24 09:02:03;;;;;;;25.20;20.70;;;;;;;0.73;91.77;95463.03;6177698;23;20054;-58
2021/12/24 09:04:29;;;;;;;25.48;20.60;;;;;;;0.63;92.20;95466.13;6175629;23;20024;-57
2021/12/24 09:06:54;;;;;;;22.88;19.02;;;;;;;0.85;91.57;95450.22;6178406;23;20029;-57
2021/12/24 09:09:20;;;;;;;23.08;19.02;;;;;;;0.67;91.49;95446.09;6177134;23;20038;-57
2021/12/24 09:11:47;;;;;;;23.27;20.00;;;;;;;0.98;90.59;95452.94;6178431;23;20012;-57
2021/12/24 09:14:17;;;;;;;24.27;18.67;;;;;;;0.77;91.01;95426.47;6176825;23;20057;-58
2021/12/24 09:16:44;;;;;;;22.63;19.05;;;;;;;0.75;91.73;95423.13;6177153;23;20000;-58
2021/12/24 09:19:13;;;;;;;22.17;18.42;;;;;;;0.77;92.05;95423.06;6176092;23;20062;-54
2021/12/24 09:21:39;;;;;;;23.73;19.42;;;;;;;0.84;92.33;95409.66;6177842;23;20032;-56
2021/12/24 09:24:07;;;;;;;23.70;19.25;;;;;;;0.95;91.66;95413.38;6178572;23;20013;-57
2021/12/24 09:26:33;;;;;;;42.08;32.17;;;;;;;1.32;90.35;95411.22;6179103;23;20008;-57
2021/12/24 09:28:59;;;;;;;32.08;27.48;;;;;;;1.25;91.18;95404.72;6177836;23;20076;-59
2021/12/24 09:31:26;;;;;;;25.92;21.33;;;;;;;1.29;90.68;95406.22;6178753;23;20001;-59
2021/12/24 09:33:52;;;;;;;27.48;24.55;;;;;;;1.43;90.21;95413.97;6176698;23;20009;-59
2021/12/24 09:36:23;;;;;;;38.75;31.52;;;;;;;1.49;90.53;95417.16;6177687;23;20009;-59
2021/12/24 09:38:49;;;;;;;35.42;29.35;;;;;;;1.50;90.10;95418.81;6176186;23;20038;-56
2021/12/24 09:41:14;;;;;;;46.65;37.70;;;;;;;1.54;89.95;95415.09;6177460;23;20001;-55
2021/12/24 09:43:40;;;;;;;48.25;36.53;;;;;;;1.57;89.52;95414.91;6177217;23;20009;-56
2021/12/24 09:46:05;;;;;;;45.83;35.65;;;;;;;1.58;90.24;95406.19;6178401;23;20096;-58
2021/12/24 09:48:31;;;;;;;50.60;40.75;;;;;;;1.62;90.06;95397.28;6176245;23;20012;-56
2021/12/24 09:50:56;;;;;;;53.88;40.88;;;;;;;1.65;90.74;95386.72;6178385;23;20028;-58
2021/12/24 09:53:21;;;;;;;40.00;32.58;;;;;;;1.74;90.34;95398.28;6177664;23;20322;-58
2021/12/24 09:55:47;;;;;;;30.70;22.83;;;;;;;1.80;90.21;95410.91;6177011;23;20005;-56
2021/12/24 09:58:12;;;;;;;17.50;15.77;;;;;;;1.89;89.01;95409.50;6176510;23;20091;-58
2021/12/24 10:00:37;;;;;;;51.17;43.75;;;;;;;1.80;88.31;95421.28;6176816;23;20005;-58
2021/12/24 10:03:03;;;;;;;24.15;21.52;;;;;;;1.58;89.14;95432.16;6177387;23;20094;-59
2021/12/24 10:05:36;;;;;;;21.52;18.67;;;;;;;1.57;89.37;95418.34;6176548;23;20020;-56
2021/12/24 10:08:15;;;;;;;17.27;14.80;;;;;;;1.50;88.83;95411.03;6177123;23;20001;-58
2021/12/24 10:10:43;;;;;;;22.23;19.92;;;;;;;1.45;89.37;95411.31;6176211;23;20005;-57
2021/12/24 10:13:27;;;;;;;20.90;18.63;;;;;;;1.48;89.33;95403.31;6177476;23;20441;-58
2021/12/24 10:15:55;;;;;;;25.85;18.48;;;;;;;1.52;88.07;95401.38;6176358;23;20327;-57
2021/12/24 10:18:37;;;;;;;18.58;14.65;;;;;;;1.56;88.31;95402.84;6178115;23;20062;-57
2021/12/24 10:21:05;;;;;;;19.38;16.95;;;;;;;1.54;88.54;95402.94;6178200;23;20005;-56
2021/12/24 10:23:57;;;;;;;20.35;17.83;;;;;;;1.56;88.99;95388.13;6178106;23;20437;-57
2021/12/24 10:26:25;;;;;;;24.77;20.80;;;;;;;1.79;88.24;95398.00;6176195;23;20341;-54
2021/12/24 10:29:04;;;;;;;18.30;14.70;;;;;;;1.69;87.28;95388.22;6177511;23;20028;-57
2021/12/24 10:31:44;;;;;;;26.20;19.42;;;;;;;1.71;87.72;95385.50;6178652;23;20036;-57
2021/12/24 10:34:17;;;;;;;23.73;18.95;;;;;;;1.75;89.05;95393.94;6176798;23;20438;-58
2021/12/24 10:37:02;;;;;;;21.52;17.67;;;;;;;1.69;88.83;95393.41;6177755;23;20095;-59
2021/12/24 10:39:29;;;;;;;24.05;17.95;;;;;;;1.78;89.51;95392.00;6177832;23;20532;-56
2021/12/24 10:41:56;;;;;;;23.70;18.95;;;;;;;2.34;88.02;95390.28;6177727;23;20440;-57
2021/12/24 10:44:27;;;;;;;16.67;13.48;;;;;;;2.20;86.83;95391.13;6178057;23;20011;-59
2021/12/24 10:47:12;;;;;;;37.30;22.55;;;;;;;2.07;87.56;95370.31;6176145;23;20118;-58
2021/12/24 10:54:52;;;;;;;45.45;34.63;;;;;;;2.07;89.76;95376.34;6177134;23;20009;-59
2021/12/24 10:57:23;;;;;;;30.85;23.20;;;;;;;2.04;89.47;95379.16;6150479;23;20012;-58
2021/12/24 10:59:51;;;;;;;27.15;20.52;;;;;;;2.07;89.93;95376.34;6176383;23;20100;-58
2021/12/24 11:02:17;;;;;;;31.83;20.80;;;;;;;2.00;91.05;95377.69;6176248;23;20009;-57
2021/12/24 11:04:43;;;;;;;19.52;15.90;;;;;;;2.02;90.71;95375.81;6176934;23;20465;-58
2021/12/24 11:07:38;;;;;;;16.83;13.20;;;;;;;2.01;91.41;95371.56;6173449;23;20001;-59
2021/12/24 11:10:13;;;;;;;17.58;14.95;;;;;;;2.03;91.73;95361.06;6175394;23;20005;-59
2021/12/24 11:12:45;;;;;;;21.90;18.63;;;;;;;2.05;91.81;95352.25;6147718;23;20013;-58
2021/12/24 11:15:28;;;;;;;31.13;26.48;;;;;;;2.13;92.26;95343.97;6176112;23;20009;-57
2021/12/24 11:17:57;;;;;;;25.30;20.67;;;;;;;2.16;92.01;95338.56;6149921;23;20013;-59
2021/12/24 11:20:25;;;;;;;27.67;20.40;;;;;;;2.26;92.45;95341.41;6178006;23;20502;-60
2021/12/24 11:23:08;;;;;;;43.20;29.73;;;;;;;2.21;92.96;95336.50;6178199;23;20011;-59
2021/12/24 11:25:46;;;;;;;36.17;26.40;;;;;;;2.23;93.27;95331.22;6178093;23;20007;-60
2021/12/24 11:28:13;;;;;;;32.22;24.60;;;;;;;2.13;93.42;95328.38;6177889;23;20012;-60
2021/12/24 11:30:43;;;;;;;33.33;25.17;;;;;;;2.11;93.78;95325.88;6175183;23;20444;-60
2021/12/24 11:33:13;;;;;;;35.22;24.25;;;;;;;2.07;94.45;95314.03;6178867;23;20062;-60
2021/12/24 11:35:39;;;;;;;28.83;21.83;;;;;;;2.14;94.96;95314.47;6178934;23;20448;-60
2021/12/24 11:38:05;;;;;;;45.00;33.83;;;;;;;2.34;93.48;95307.94;6177967;23;20005;-59
2021/12/24 11:40:31;;;;;;;44.67;34.53;;;;;;;2.29;94.53;95304.84;6178307;23;20468;-59
2021/12/24 11:43:04;;;;;;;42.28;33.53;;;;;;;2.21;94.55;95305.31;6152953;23;20115;-58
2021/12/24 11:45:30;;;;;;;40.33;31.35;;;;;;;2.21;94.44;95312.28;6176408;23;20009;-59
2021/12/24 11:47:57;;;;;;;61.97;44.55;;;;;;;2.23;94.65;95313.84;6178394;22;20006;-59
2021/12/24 11:50:24;;;;;;;47.60;35.85;;;;;;;2.43;94.25;95317.75;6175092;23;20005;-59
2021/12/24 11:52:53;;;;;;;39.42;29.88;;;;;;;2.16;94.42;95312.59;6179257;23;20061;-58
2021/12/24 11:55:19;;;;;;;29.77;22.08;;;;;;;2.11;94.77;95312.06;6178483;23;20001;-58
2021/12/24 11:58:01;;;;;;;27.52;22.17;;;;;;;1.92;96.06;95315.84;6179950;23;20128;-59
2021/12/24 12:00:36;;;;;;;28.42;22.25;;;;;;;1.93;95.52;95312.31;6178034;23;20008;-58
2021/12/24 12:03:01;;;;;;;26.38;21.15;;;;;;;1.99;95.34;95305.91;6179319;23;20008;-59
2021/12/24 12:05:34;;;;;;;22.40;19.45;;;;;;;2.08;94.75;95299.25;6177821;23;20018;-59
2021/12/24 12:08:33;;;;;;;23.05;19.88;;;;;;;2.03;95.30;95285.75;6178173;23;20074;-59
2021/12/24 12:11:05;;;;;;;21.05;18.33;;;;;;;2.07;94.50;95282.00;6178259;23;20005;-60
2021/12/24 12:14:01;;;;;;;28.45;24.55;;;;;;;2.12;93.78;95280.78;6177470;23;20009;-59
2021/12/24 12:16:47;;;;;;;27.13;22.88;;;;;;;2.19;94.04;95276.03;6177573;23;20009;-59
2021/12/24 12:19:45;;;;;;;28.45;22.65;;;;;;;2.24;93.46;95279.16;6178508;23;20441;-59
2021/12/24 12:25:31;;;;;;;25.20;20.92;;;;;;;2.38;93.14;95272.22;6178858;23;20001;-58
2021/12/24 12:27:58;;;;;;;30.95;25.65;;;;;;;2.28;93.03;95278.00;6178242;23;20051;-58
2021/12/24 12:30:39;;;;;;;31.30;27.15;;;;;;;2.24;92.86;95279.16;6178056;23;20588;-58
2021/12/24 12:33:06;;;;;;;29.42;26.25;;;;;;;2.27;93.58;95280.72;6178324;23;20433;-57
2021/12/24 12:35:50;;;;;;;27.33;20.67;;;;;;;2.24;93.00;95271.34;6178480;23;20349;-58
2021/12/24 12:38:35;;;;;;;20.38;18.00;;;;;;;2.26;93.15;95271.28;6178899;23;20009;-59
2021/12/24 12:41:23;;;;;;;16.95;15.35;;;;;;;2.28;92.86;95275.41;6178568;23;20452;-58
2021/12/24 12:43:50;;;;;;;23.55;18.30;;;;;;;2.32;93.22;95267.41;6178320;23;20005;-57
2021/12/24 12:46:24;;;;;;;25.17;19.38;;;;;;;2.34;93.58;95275.97;6175499;23;20009;-58
2021/12/24 12:48:53;;;;;;;21.80;19.55;;;;;;;2.33;93.11;95266.50;6178360;23;20065;-59
2021/12/24 12:51:21;;;;;;;24.17;21.60;;;;;;;2.38;93.25;95264.44;6178396;23;20013;-58
2021/12/24 12:53:48;;;;;;;23.75;21.23;;;;;;;2.47;93.70;95263.81;6177808;23;20046;-56
2021/12/24 12:56:19;;;;;;;25.45;22.73;;;;;;;2.94;90.36;95255.47;6151467;23;20005;-58
2021/12/24 12:58:47;;;;;;;21.90;19.55;;;;;;;2.84;90.49;95263.06;6177877;23;20024;-56
2021/12/24 13:01:20;;;;;;;38.20;30.50;;;;;;;2.77;90.42;95252.28;6177491;23;20437;-57
2021/12/24 13:03:55;;;;;;;38.05;30.38;;;;;;;2.77;91.45;95259.25;6180276;22;20419;-54
2021/12/24 13:06:21;;;;;;;43.10;33.28;;;;;;;2.59;91.88;95256.94;6304262;22;20027;-57
2021/12/24 13:08:47;;;;;;;39.00;31.60;;;;;;;2.68;92.08;95250.28;6303295;22;20030;-57
2021/12/24 13:11:16;;;;;;;42.35;34.13;;;;;;;2.61;92.48;95249.06;6304193;22;20026;-58
2021/12/24 13:13:51;;;;;;;40.88;33.97;;;;;;;2.60;92.47;95255.19;6304831;22;20000;-58
2021/12/24 13:16:18;;;;;;;42.03;35.13;;;;;;;2.60;92.63;95248.22;6302979;22;20007;-57
2021/12/24 13:18:52;;;;;;;53.08;40.40;;;;;;;2.60;93.13;95255.19;6303402;22;20230;-58
2021/12/24 13:24:11;;;;;;;60.65;52.85;;;;;;;2.65;93.27;95261.75;6302812;22;20014;-56
2021/12/24 13:26:37;;;;;;;37.25;32.88;;;;;;;2.62;94.10;95248.94;6303993;22;20477;-58